sensor_id;sensor_type;location;lat;lon;timestamp;P1;durP1;ratioP1;P2;durP2;ratioP2
1336;SDS011;662;48.814;9.318;2023-08-30T00:00:11;9.23;;;8.33;;
1336;SDS011;662;48.814;9.318;2023-08-30T00:02:37;9.10;;;8.40;;
1336;SDS011;662;48.814;9.318;2023-08-30T00:05:02;8.87;;;8.17;;
1336;SDS011;662;48.814;9.318;2023-08-30T00:07:29;9.77;;;8.93;;
1336;SDS011;662;48.814;9.318;2023-08-30T00:09:55;8.60;;;7.90;;
1336;SDS011;662;48.814;9.318;2023-08-30T00:12:21;8.27;;;7.57;;
1336;SDS011;662;48.814;9.318;2023-08-30T00:14:47;8.73;;;8.03;;
1336;SDS011;662;48.814;9.318;2023-08-30T00:17:12;8.70;;;8.00;;
1336;SDS011;662;48.814;9.318;2023-08-30T00:19:38;8.50;;;7.80;;
1336;SDS011;662;48.814;9.318;2023-08-30T00:22:04;9.53;;;8.63;;
1336;SDS011;662;48.814;9.318;2023-08-30T00:24:32;10.03;;;9.23;;
1336;SDS011;662;48.814;9.318;2023-08-30T00:26:58;9.23;;;8.43;;
1336;SDS011;662;48.814;9.318;2023-08-30T00:29:24;9.90;;;8.90;;
1336;SDS011;662;48.814;9.318;2023-08-30T00:31:49;9.50;;;8.70;;
1336;SDS011;662;48.814;9.318;2023-08-30T00:34:15;9.43;;;8.50;;
1336;SDS011;662;48.814;9.318;2023-08-30T00:36:41;8.70;;;8.00;;
1336;SDS011;662;48.814;9.318;2023-08-30T00:39:06;8.67;;;7.97;;
1336;SDS011;662;48.814;9.318;2023-08-30T00:41:33;9.00;;;8.20;;
1336;SDS011;662;48.814;9.318;2023-08-30T00:43:59;11.37;;;8.27;;
1336;SDS011;662;48.814;9.318;2023-08-30T00:46:25;10.23;;;9.33;;
1336;SDS011;662;48.814;9.318;2023-08-30T00:48:51;9.60;;;8.60;;
1336;SDS011;662;48.814;9.318;2023-08-30T00:51:17;9.63;;;8.73;;
1336;SDS011;662;48.814;9.318;2023-08-30T00:53:44;10.40;;;9.43;;
1336;SDS011;662;48.814;9.318;2023-08-30T00:56:09;8.87;;;7.97;;
1336;SDS011;662;48.814;9.318;2023-08-30T00:58:35;9.17;;;8.27;;
1336;SDS011;662;48.814;9.318;2023-08-30T01:01:03;8.97;;;8.27;;
1336;SDS011;662;48.814;9.318;2023-08-30T01:03:33;10.63;;;9.53;;
1336;SDS011;662;48.814;9.318;2023-08-30T01:05:59;9.53;;;8.50;;
1336;SDS011;662;48.814;9.318;2023-08-30T01:08:25;9.50;;;8.60;;
1336;SDS011;662;48.814;9.318;2023-08-30T01:13:53;9.13;;;8.33;;
1336;SDS011;662;48.814;9.318;2023-08-30T01:16:37;10.30;;;9.40;;
1336;SDS011;662;48.814;9.318;2023-08-30T01:19:04;9.43;;;8.63;;
1336;SDS011;662;48.814;9.318;2023-08-30T01:22:05;8.67;;;7.97;;
1336;SDS011;662;48.814;9.318;2023-08-30T01:24:47;11.40;;;8.67;;
1336;SDS011;662;48.814;9.318;2023-08-30T01:27:47;9.50;;;8.70;;
1336;SDS011;662;48.814;9.318;2023-08-30T01:30:15;9.93;;;9.13;;
1336;SDS011;662;48.814;9.318;2023-08-30T01:32:42;9.73;;;8.80;;
1336;SDS011;662;48.814;9.318;2023-08-30T01:35:09;9.27;;;8.47;;
1336;SDS011;662;48.814;9.318;2023-08-30T01:37:35;9.77;;;8.90;;
1336;SDS011;662;48.814;9.318;2023-08-30T01:40:03;9.30;;;8.50;;
1336;SDS011;662;48.814;9.318;2023-08-30T01:42:30;9.20;;;8.37;;
1336;SDS011;662;48.814;9.318;2023-08-30T01:44:57;9.50;;;8.70;;
1336;SDS011;662;48.814;9.318;2023-08-30T01:47:26;10.70;;;9.57;;
1336;SDS011;662;48.814;9.318;2023-08-30T01:49:53;10.43;;;9.43;;
1336;SDS011;662;48.814;9.318;2023-08-30T01:52:20;8.60;;;7.80;;
1336;SDS011;662;48.814;9.318;2023-08-30T01:54:47;9.57;;;8.67;;
1336;SDS011;662;48.814;9.318;2023-08-30T01:57:15;8.20;;;7.40;;
1336;SDS011;662;48.814;9.318;2023-08-30T01:59:41;9.80;;;8.60;;
1336;SDS011;662;48.814;9.318;2023-08-30T02:02:06;9.40;;;8.37;;
1336;SDS011;662;48.814;9.318;2023-08-30T02:04:32;9.20;;;8.40;;
1336;SDS011;662;48.814;9.318;2023-08-30T02:06:59;9.43;;;8.63;;
1336;SDS011;662;48.814;9.318;2023-08-30T02:12:13;9.27;;;8.37;;
1336;SDS011;662;48.814;9.318;2023-08-30T02:14:41;10.70;;;9.80;;
1336;SDS011;662;48.814;9.318;2023-08-30T02:17:16;10.77;;;9.77;;
1336;SDS011;662;48.814;9.318;2023-08-30T02:19:43;10.30;;;9.50;;
1336;SDS011;662;48.814;9.318;2023-08-30T02:22:09;10.20;;;9.23;;
1336;SDS011;662;48.814;9.318;2023-08-30T02:24:35;11.20;;;9.67;;
1336;SDS011;662;48.814;9.318;2023-08-30T02:27:00;11.97;;;10.80;;
1336;SDS011;662;48.814;9.318;2023-08-30T02:29:26;12.33;;;11.13;;
1336;SDS011;662;48.814;9.318;2023-08-30T02:31:52;12.63;;;11.33;;
1336;SDS011;662;48.814;9.318;2023-08-30T02:34:18;12.53;;;11.30;;
1336;SDS011;662;48.814;9.318;2023-08-30T02:36:43;11.97;;;10.87;;
1336;SDS011;662;48.814;9.318;2023-08-30T02:39:09;12.67;;;11.47;;
1336;SDS011;662;48.814;9.318;2023-08-30T02:41:36;12.83;;;11.63;;
1336;SDS011;662;48.814;9.318;2023-08-30T02:44:01;14.20;;;12.90;;
1336;SDS011;662;48.814;9.318;2023-08-30T02:46:27;11.70;;;10.63;;
1336;SDS011;662;48.814;9.318;2023-08-30T02:48:52;13.10;;;11.80;;
1336;SDS011;662;48.814;9.318;2023-08-30T02:51:18;11.53;;;10.43;;
1336;SDS011;662;48.814;9.318;2023-08-30T02:53:43;13.13;;;11.83;;
1336;SDS011;662;48.814;9.318;2023-08-30T02:56:09;13.60;;;12.40;;
1336;SDS011;662;48.814;9.318;2023-08-30T02:58:36;14.07;;;12.60;;
1336;SDS011;662;48.814;9.318;2023-08-30T03:01:02;13.33;;;12.10;;
1336;SDS011;662;48.814;9.318;2023-08-30T03:03:27;13.90;;;12.60;;
1336;SDS011;662;48.814;9.318;2023-08-30T03:05:53;13.60;;;12.13;;
1336;SDS011;662;48.814;9.318;2023-08-30T03:08:19;14.50;;;12.80;;
1336;SDS011;662;48.814;9.318;2023-08-30T03:10:45;14.10;;;12.70;;
1336;SDS011;662;48.814;9.318;2023-08-30T03:13:10;13.30;;;12.00;;
1336;SDS011;662;48.814;9.318;2023-08-30T03:15:36;13.60;;;12.30;;
1336;SDS011;662;48.814;9.318;2023-08-30T03:18:01;13.33;;;12.10;;
1336;SDS011;662;48.814;9.318;2023-08-30T03:20:27;13.73;;;12.43;;
1336;SDS011;662;48.814;9.318;2023-08-30T03:22:56;14.87;;;13.37;;
1336;SDS011;662;48.814;9.318;2023-08-30T03:25:28;14.10;;;12.87;;
1336;SDS011;662;48.814;9.318;2023-08-30T03:27:54;13.27;;;12.03;;
1336;SDS011;662;48.814;9.318;2023-08-30T03:30:20;15.33;;;13.83;;
1336;SDS011;662;48.814;9.318;2023-08-30T03:32:46;13.30;;;11.90;;
1336;SDS011;662;48.814;9.318;2023-08-30T03:35:11;13.30;;;11.97;;
1336;SDS011;662;48.814;9.318;2023-08-30T03:37:37;15.10;;;13.50;;
1336;SDS011;662;48.814;9.318;2023-08-30T03:40:02;12.43;;;11.30;;
1336;SDS011;662;48.814;9.318;2023-08-30T03:42:29;13.23;;;11.93;;
1336;SDS011;662;48.814;9.318;2023-08-30T03:44:55;14.20;;;12.80;;
1336;SDS011;662;48.814;9.318;2023-08-30T03:47:21;12.60;;;10.83;;
1336;SDS011;662;48.814;9.318;2023-08-30T03:49:46;12.57;;;11.40;;
1336;SDS011;662;48.814;9.318;2023-08-30T03:52:12;11.70;;;10.70;;
1336;SDS011;662;48.814;9.318;2023-08-30T03:54:38;18.63;;;11.33;;
1336;SDS011;662;48.814;9.318;2023-08-30T03:57:04;11.73;;;10.63;;
1336;SDS011;662;48.814;9.318;2023-08-30T03:59:29;12.00;;;10.43;;
1336;SDS011;662;48.814;9.318;2023-08-30T04:01:55;11.33;;;10.30;;
1336;SDS011;662;48.814;9.318;2023-08-30T04:04:21;10.40;;;9.43;;
1336;SDS011;662;48.814;9.318;2023-08-30T04:06:46;11.60;;;10.60;;
1336;SDS011;662;48.814;9.318;2023-08-30T04:09:12;11.37;;;10.33;;
1336;SDS011;662;48.814;9.318;2023-08-30T04:11:37;11.00;;;9.90;;
1336;SDS011;662;48.814;9.318;2023-08-30T04:14:03;12.43;;;11.23;;
1336;SDS011;662;48.814;9.318;2023-08-30T04:16:29;11.40;;;10.30;;
1336;SDS011;662;48.814;9.318;2023-08-30T04:18:54;10.43;;;9.40;;
1336;SDS011;662;48.814;9.318;2023-08-30T04:21:20;11.73;;;10.60;;
1336;SDS011;662;48.814;9.318;2023-08-30T04:23:46;11.33;;;10.30;;
1336;SDS011;662;48.814;9.318;2023-08-30T04:26:11;10.80;;;9.90;;
1336;SDS011;662;48.814;9.318;2023-08-30T04:28:37;10.93;;;9.87;;
1336;SDS011;662;48.814;9.318;2023-08-30T04:31:02;10.47;;;9.57;;
1336;SDS011;662;48.814;9.318;2023-08-30T04:33:28;10.00;;;9.10;;
1336;SDS011;662;48.814;9.318;2023-08-30T04:35:54;10.77;;;9.77;;
1336;SDS011;662;48.814;9.318;2023-08-30T04:38:20;11.00;;;10.00;;
1336;SDS011;662;48.814;9.318;2023-08-30T04:40:46;11.10;;;10.00;;
1336;SDS011;662;48.814;9.318;2023-08-30T04:43:13;10.67;;;9.67;;
1336;SDS011;662;48.814;9.318;2023-08-30T04:45:39;11.17;;;10.03;;
1336;SDS011;662;48.814;9.318;2023-08-30T04:48:04;13.57;;;10.03;;
1336;SDS011;662;48.814;9.318;2023-08-30T04:50:30;11.27;;;10.17;;
1336;SDS011;662;48.814;9.318;2023-08-30T04:52:56;10.13;;;9.23;;
1336;SDS011;662;48.814;9.318;2023-08-30T04:55:25;10.80;;;9.80;;
1336;SDS011;662;48.814;9.318;2023-08-30T04:57:53;11.77;;;10.77;;
1336;SDS011;662;48.814;9.318;2023-08-30T05:00:19;10.60;;;9.60;;
1336;SDS011;662;48.814;9.318;2023-08-30T05:02:44;10.90;;;9.80;;
1336;SDS011;662;48.814;9.318;2023-08-30T05:05:11;10.80;;;9.80;;
1336;SDS011;662;48.814;9.318;2023-08-30T05:07:38;10.63;;;9.70;;
1336;SDS011;662;48.814;9.318;2023-08-30T05:10:04;10.93;;;9.93;;
1336;SDS011;662;48.814;9.318;2023-08-30T05:12:31;9.67;;;8.67;;
1336;SDS011;662;48.814;9.318;2023-08-30T05:14:58;10.57;;;9.63;;
1336;SDS011;662;48.814;9.318;2023-08-30T05:17:23;10.90;;;9.53;;
1336;SDS011;662;48.814;9.318;2023-08-30T05:19:50;10.73;;;9.70;;
1336;SDS011;662;48.814;9.318;2023-08-30T05:22:16;10.77;;;9.77;;
1336;SDS011;662;48.814;9.318;2023-08-30T05:24:41;11.00;;;10.00;;
1336;SDS011;662;48.814;9.318;2023-08-30T05:27:07;10.83;;;9.83;;
1336;SDS011;662;48.814;9.318;2023-08-30T05:29:33;11.47;;;10.37;;
1336;SDS011;662;48.814;9.318;2023-08-30T05:31:58;10.93;;;9.93;;
1336;SDS011;662;48.814;9.318;2023-08-30T05:34:24;10.83;;;9.93;;
1336;SDS011;662;48.814;9.318;2023-08-30T05:36:51;10.10;;;9.20;;
1336;SDS011;662;48.814;9.318;2023-08-30T05:39:18;10.50;;;9.57;;
1336;SDS011;662;48.814;9.318;2023-08-30T05:41:43;10.40;;;9.57;;
1336;SDS011;662;48.814;9.318;2023-08-30T05:44:09;10.83;;;9.73;;
1336;SDS011;662;48.814;9.318;2023-08-30T05:46:35;11.67;;;10.37;;
1336;SDS011;662;48.814;9.318;2023-08-30T05:49:00;9.93;;;9.03;;
1336;SDS011;662;48.814;9.318;2023-08-30T05:51:28;10.83;;;9.80;;
1336;SDS011;662;48.814;9.318;2023-08-30T05:53:53;12.73;;;11.43;;
1336;SDS011;662;48.814;9.318;2023-08-30T05:56:19;12.30;;;11.10;;
1336;SDS011;662;48.814;9.318;2023-08-30T05:58:45;10.27;;;9.30;;
1336;SDS011;662;48.814;9.318;2023-08-30T06:01:10;12.03;;;10.83;;
1336;SDS011;662;48.814;9.318;2023-08-30T06:03:36;10.70;;;9.60;;
1336;SDS011;662;48.814;9.318;2023-08-30T06:06:01;11.97;;;10.87;;
1336;SDS011;662;48.814;9.318;2023-08-30T06:08:28;11.33;;;10.33;;
1336;SDS011;662;48.814;9.318;2023-08-30T06:10:54;11.97;;;10.83;;
1336;SDS011;662;48.814;9.318;2023-08-30T06:13:19;13.20;;;11.90;;
1336;SDS011;662;48.814;9.318;2023-08-30T06:15:45;10.80;;;9.80;;
1336;SDS011;662;48.814;9.318;2023-08-30T06:18:14;10.87;;;9.87;;
1336;SDS011;662;48.814;9.318;2023-08-30T06:20:40;11.70;;;10.60;;
1336;SDS011;662;48.814;9.318;2023-08-30T06:23:06;14.43;;;11.60;;
1336;SDS011;662;48.814;9.318;2023-08-30T06:25:32;11.10;;;10.07;;
1336;SDS011;662;48.814;9.318;2023-08-30T06:27:58;11.20;;;10.00;;
1336;SDS011;662;48.814;9.318;2023-08-30T06:30:28;10.17;;;9.13;;
1336;SDS011;662;48.814;9.318;2023-08-30T06:32:57;10.00;;;9.10;;
1336;SDS011;662;48.814;9.318;2023-08-30T06:35:23;9.23;;;8.40;;
1336;SDS011;662;48.814;9.318;2023-08-30T06:37:48;11.03;;;10.03;;
1336;SDS011;662;48.814;9.318;2023-08-30T06:40:14;10.80;;;9.80;;
1336;SDS011;662;48.814;9.318;2023-08-30T06:42:40;10.13;;;9.23;;
1336;SDS011;662;48.814;9.318;2023-08-30T06:45:05;9.57;;;8.77;;
1336;SDS011;662;48.814;9.318;2023-08-30T06:47:31;10.37;;;9.37;;
1336;SDS011;662;48.814;9.318;2023-08-30T06:49:57;10.50;;;9.57;;
1336;SDS011;662;48.814;9.318;2023-08-30T06:52:24;9.83;;;9.03;;
1336;SDS011;662;48.814;9.318;2023-08-30T06:54:49;10.60;;;8.27;;
1336;SDS011;662;48.814;9.318;2023-08-30T06:57:15;10.17;;;9.27;;
1336;SDS011;662;48.814;9.318;2023-08-30T06:59:41;9.97;;;9.17;;
1336;SDS011;662;48.814;9.318;2023-08-30T07:02:06;11.43;;;10.10;;
1336;SDS011;662;48.814;9.318;2023-08-30T07:04:32;9.83;;;8.93;;
1336;SDS011;662;48.814;9.318;2023-08-30T07:06:57;10.97;;;9.40;;
1336;SDS011;662;48.814;9.318;2023-08-30T07:09:23;12.17;;;10.77;;
1336;SDS011;662;48.814;9.318;2023-08-30T07:11:53;10.20;;;9.20;;
1336;SDS011;662;48.814;9.318;2023-08-30T07:14:22;9.07;;;8.20;;
1336;SDS011;662;48.814;9.318;2023-08-30T07:16:47;7.90;;;7.20;;
1336;SDS011;662;48.814;9.318;2023-08-30T07:19:14;7.30;;;6.70;;
1336;SDS011;662;48.814;9.318;2023-08-30T07:21:41;7.73;;;7.03;;
1336;SDS011;662;48.814;9.318;2023-08-30T07:24:09;7.60;;;7.00;;
1336;SDS011;662;48.814;9.318;2023-08-30T07:26:35;8.57;;;7.67;;
1336;SDS011;662;48.814;9.318;2023-08-30T07:29:01;8.33;;;7.73;;
1336;SDS011;662;48.814;9.318;2023-08-30T07:31:29;8.17;;;7.47;;
1336;SDS011;662;48.814;9.318;2023-08-30T07:33:56;8.40;;;7.70;;
1336;SDS011;662;48.814;9.318;2023-08-30T07:36:23;8.10;;;7.40;;
1336;SDS011;662;48.814;9.318;2023-08-30T07:38:48;8.80;;;8.10;;
1336;SDS011;662;48.814;9.318;2023-08-30T07:41:14;8.67;;;7.97;;
1336;SDS011;662;48.814;9.318;2023-08-30T07:43:40;11.70;;;10.00;;
1336;SDS011;662;48.814;9.318;2023-08-30T07:46:05;8.07;;;7.27;;
1336;SDS011;662;48.814;9.318;2023-08-30T07:48:31;7.53;;;6.90;;
1336;SDS011;662;48.814;9.318;2023-08-30T07:50:56;7.83;;;7.13;;
1336;SDS011;662;48.814;9.318;2023-08-30T07:53:22;7.90;;;7.20;;
1336;SDS011;662;48.814;9.318;2023-08-30T07:55:48;7.47;;;6.73;;
1336;SDS011;662;48.814;9.318;2023-08-30T07:58:15;8.90;;;8.00;;
1336;SDS011;662;48.814;9.318;2023-08-30T08:00:41;7.77;;;6.97;;
1336;SDS011;662;48.814;9.318;2023-08-30T08:03:07;12.87;;;8.97;;
1336;SDS011;662;48.814;9.318;2023-08-30T08:05:32;12.10;;;7.47;;
1336;SDS011;662;48.814;9.318;2023-08-30T08:07:59;7.93;;;7.33;;
1336;SDS011;662;48.814;9.318;2023-08-30T08:10:31;8.20;;;7.20;;
1336;SDS011;662;48.814;9.318;2023-08-30T08:13:00;24.47;;;13.20;;
1336;SDS011;662;48.814;9.318;2023-08-30T08:15:26;14.63;;;9.87;;
1336;SDS011;662;48.814;9.318;2023-08-30T08:17:51;7.80;;;7.00;;
1336;SDS011;662;48.814;9.318;2023-08-30T08:20:17;6.27;;;5.73;;
1336;SDS011;662;48.814;9.318;2023-08-30T08:22:43;6.13;;;5.63;;
1336;SDS011;662;48.814;9.318;2023-08-30T08:25:08;6.13;;;5.63;;
1336;SDS011;662;48.814;9.318;2023-08-30T08:27:35;7.40;;;6.80;;
1336;SDS011;662;48.814;9.318;2023-08-30T08:30:01;6.13;;;5.63;;
1336;SDS011;662;48.814;9.318;2023-08-30T08:32:29;7.20;;;6.43;;
1336;SDS011;662;48.814;9.318;2023-08-30T08:34:55;6.77;;;6.23;;
1336;SDS011;662;48.814;9.318;2023-08-30T08:37:21;7.00;;;6.30;;
1336;SDS011;662;48.814;9.318;2023-08-30T08:39:47;8.50;;;6.40;;
1336;SDS011;662;48.814;9.318;2023-08-30T08:42:17;6.00;;;5.50;;
1336;SDS011;662;48.814;9.318;2023-08-30T08:44:46;6.73;;;5.97;;
1336;SDS011;662;48.814;9.318;2023-08-30T08:47:13;5.43;;;4.97;;
1336;SDS011;662;48.814;9.318;2023-08-30T08:49:41;6.50;;;4.67;;
1336;SDS011;662;48.814;9.318;2023-08-30T08:52:08;6.60;;;6.10;;
1336;SDS011;662;48.814;9.318;2023-08-30T08:54:34;5.57;;;5.10;;
1336;SDS011;662;48.814;9.318;2023-08-30T08:57:03;5.87;;;5.37;;
1336;SDS011;662;48.814;9.318;2023-08-30T08:59:30;5.97;;;5.27;;
1336;SDS011;662;48.814;9.318;2023-08-30T09:01:56;5.00;;;4.60;;
1336;SDS011;662;48.814;9.318;2023-08-30T09:04:21;5.73;;;5.23;;
1336;SDS011;662;48.814;9.318;2023-08-30T09:06:48;6.00;;;5.40;;
1336;SDS011;662;48.814;9.318;2023-08-30T09:09:15;5.80;;;5.30;;
1336;SDS011;662;48.814;9.318;2023-08-30T09:11:41;5.20;;;4.70;;
1336;SDS011;662;48.814;9.318;2023-08-30T09:14:08;5.30;;;4.90;;
1336;SDS011;662;48.814;9.318;2023-08-30T09:16:33;5.07;;;4.57;;
1336;SDS011;662;48.814;9.318;2023-08-30T09:19:00;4.70;;;4.40;;
1336;SDS011;662;48.814;9.318;2023-08-30T09:21:27;4.20;;;3.80;;
1336;SDS011;662;48.814;9.318;2023-08-30T09:24:03;5.10;;;4.67;;
1336;SDS011;662;48.814;9.318;2023-08-30T09:26:29;5.00;;;4.17;;
1336;SDS011;662;48.814;9.318;2023-08-30T09:29:01;3.77;;;3.57;;
1336;SDS011;662;48.814;9.318;2023-08-30T09:31:32;3.83;;;3.53;;
1336;SDS011;662;48.814;9.318;2023-08-30T09:33:59;3.90;;;3.60;;
1336;SDS011;662;48.814;9.318;2023-08-30T09:36:26;5.03;;;4.20;;
1336;SDS011;662;48.814;9.318;2023-08-30T09:38:57;3.67;;;3.37;;
1336;SDS011;662;48.814;9.318;2023-08-30T09:41:24;3.90;;;3.50;;
1336;SDS011;662;48.814;9.318;2023-08-30T09:43:50;3.00;;;2.80;;
1336;SDS011;662;48.814;9.318;2023-08-30T09:46:15;4.00;;;3.70;;
1336;SDS011;662;48.814;9.318;2023-08-30T09:48:41;3.97;;;3.67;;
1336;SDS011;662;48.814;9.318;2023-08-30T09:51:07;3.43;;;3.13;;
1336;SDS011;662;48.814;9.318;2023-08-30T09:53:37;3.70;;;3.40;;
1336;SDS011;662;48.814;9.318;2023-08-30T09:56:09;4.33;;;2.63;;
1336;SDS011;662;48.814;9.318;2023-08-30T09:58:39;3.87;;;3.33;;
1336;SDS011;662;48.814;9.318;2023-08-30T10:01:06;3.70;;;3.40;;
1336;SDS011;662;48.814;9.318;2023-08-30T10:03:32;3.00;;;2.80;;
1336;SDS011;662;48.814;9.318;2023-08-30T10:06:00;3.33;;;3.03;;
1336;SDS011;662;48.814;9.318;2023-08-30T10:08:29;2.90;;;2.70;;
1336;SDS011;662;48.814;9.318;2023-08-30T10:10:57;2.90;;;2.70;;
1336;SDS011;662;48.814;9.318;2023-08-30T10:13:23;3.13;;;2.83;;
1336;SDS011;662;48.814;9.318;2023-08-30T10:15:50;4.00;;;2.80;;
1336;SDS011;662;48.814;9.318;2023-08-30T10:18:20;3.00;;;2.80;;
1336;SDS011;662;48.814;9.318;2023-08-30T10:20:49;3.00;;;2.77;;
1336;SDS011;662;48.814;9.318;2023-08-30T10:23:18;3.30;;;2.30;;
1336;SDS011;662;48.814;9.318;2023-08-30T10:25:44;2.67;;;2.47;;
1336;SDS011;662;48.814;9.318;2023-08-30T10:28:11;2.37;;;2.23;;
1336;SDS011;662;48.814;9.318;2023-08-30T10:30:37;2.57;;;2.37;;
1336;SDS011;662;48.814;9.318;2023-08-30T10:33:11;2.00;;;1.90;;
1336;SDS011;662;48.814;9.318;2023-08-30T10:35:46;2.40;;;2.20;;
1336;SDS011;662;48.814;9.318;2023-08-30T10:38:24;2.60;;;2.40;;
1336;SDS011;662;48.814;9.318;2023-08-30T10:40:54;2.70;;;2.50;;
1336;SDS011;662;48.814;9.318;2023-08-30T10:43:30;2.60;;;2.40;;
1336;SDS011;662;48.814;9.318;2023-08-30T10:45:59;2.50;;;2.30;;
1336;SDS011;662;48.814;9.318;2023-08-30T10:48:33;2.93;;;2.70;;
1336;SDS011;662;48.814;9.318;2023-08-30T10:51:02;2.47;;;2.27;;
1336;SDS011;662;48.814;9.318;2023-08-30T10:53:30;2.60;;;2.40;;
1336;SDS011;662;48.814;9.318;2023-08-30T10:56:02;2.70;;;2.50;;
1336;SDS011;662;48.814;9.318;2023-08-30T10:58:38;2.90;;;2.50;;
1336;SDS011;662;48.814;9.318;2023-08-30T11:01:06;2.30;;;2.10;;
1336;SDS011;662;48.814;9.318;2023-08-30T11:03:34;2.27;;;2.07;;
1336;SDS011;662;48.814;9.318;2023-08-30T11:06:00;2.43;;;2.23;;
1336;SDS011;662;48.814;9.318;2023-08-30T11:08:28;2.87;;;2.07;;
1336;SDS011;662;48.814;9.318;2023-08-30T11:11:03;2.10;;;1.90;;
1336;SDS011;662;48.814;9.318;2023-08-30T11:13:30;1.87;;;1.77;;
1336;SDS011;662;48.814;9.318;2023-08-30T11:16:02;2.10;;;1.70;;
1336;SDS011;662;48.814;9.318;2023-08-30T11:18:29;2.30;;;2.10;;
1336;SDS011;662;48.814;9.318;2023-08-30T11:20:59;2.20;;;2.00;;
1336;SDS011;662;48.814;9.318;2023-08-30T11:23:26;1.90;;;1.80;;
1336;SDS011;662;48.814;9.318;2023-08-30T11:25:51;1.60;;;1.50;;
1336;SDS011;662;48.814;9.318;2023-08-30T11:28:21;2.20;;;2.00;;
1336;SDS011;662;48.814;9.318;2023-08-30T11:30:48;2.03;;;1.83;;
1336;SDS011;662;48.814;9.318;2023-08-30T11:33:16;2.07;;;1.97;;
1336;SDS011;662;48.814;9.318;2023-08-30T11:35:43;1.93;;;1.83;;
1336;SDS011;662;48.814;9.318;2023-08-30T11:38:10;2.13;;;2.03;;
1336;SDS011;662;48.814;9.318;2023-08-30T11:40:38;2.07;;;1.97;;
1336;SDS011;662;48.814;9.318;2023-08-30T11:43:03;2.70;;;2.37;;
1336;SDS011;662;48.814;9.318;2023-08-30T11:45:32;1.80;;;1.70;;
1336;SDS011;662;48.814;9.318;2023-08-30T11:47:59;4.43;;;1.80;;
1336;SDS011;662;48.814;9.318;2023-08-30T11:50:27;2.33;;;2.13;;
1336;SDS011;662;48.814;9.318;2023-08-30T11:52:53;2.70;;;2.20;;
1336;SDS011;662;48.814;9.318;2023-08-30T11:55:22;2.83;;;2.63;;
1336;SDS011;662;48.814;9.318;2023-08-30T11:57:49;2.03;;;1.93;;
1336;SDS011;662;48.814;9.318;2023-08-30T12:00:17;2.00;;;1.90;;
1336;SDS011;662;48.814;9.318;2023-08-30T12:02:45;1.90;;;1.80;;
1336;SDS011;662;48.814;9.318;2023-08-30T12:05:12;2.33;;;2.13;;
1336;SDS011;662;48.814;9.318;2023-08-30T12:07:38;2.70;;;2.13;;
1336;SDS011;662;48.814;9.318;2023-08-30T12:10:05;3.37;;;2.87;;
1336;SDS011;662;48.814;9.318;2023-08-30T12:12:32;4.17;;;2.70;;
1336;SDS011;662;48.814;9.318;2023-08-30T12:14:58;2.10;;;2.00;;
1336;SDS011;662;48.814;9.318;2023-08-30T12:17:24;2.83;;;2.63;;
1336;SDS011;662;48.814;9.318;2023-08-30T12:19:56;3.93;;;2.93;;
1336;SDS011;662;48.814;9.318;2023-08-30T12:22:22;3.57;;;3.30;;
1336;SDS011;662;48.814;9.318;2023-08-30T12:24:48;3.60;;;3.30;;
1336;SDS011;662;48.814;9.318;2023-08-30T12:27:13;4.10;;;3.80;;
1336;SDS011;662;48.814;9.318;2023-08-30T12:29:39;4.70;;;4.30;;
1336;SDS011;662;48.814;9.318;2023-08-30T12:32:05;4.30;;;4.00;;
1336;SDS011;662;48.814;9.318;2023-08-30T12:34:31;4.93;;;4.63;;
1336;SDS011;662;48.814;9.318;2023-08-30T12:36:57;6.47;;;4.20;;
1336;SDS011;662;48.814;9.318;2023-08-30T12:39:23;3.10;;;2.90;;
1336;SDS011;662;48.814;9.318;2023-08-30T12:41:49;3.17;;;2.67;;
1336;SDS011;662;48.814;9.318;2023-08-30T12:44:15;3.10;;;2.90;;
1336;SDS011;662;48.814;9.318;2023-08-30T12:46:40;2.53;;;2.33;;
1336;SDS011;662;48.814;9.318;2023-08-30T12:49:06;2.10;;;2.00;;
1336;SDS011;662;48.814;9.318;2023-08-30T12:51:32;1.93;;;1.83;;
1336;SDS011;662;48.814;9.318;2023-08-30T12:53:57;2.60;;;2.40;;
1336;SDS011;662;48.814;9.318;2023-08-30T12:56:23;2.47;;;2.27;;
1336;SDS011;662;48.814;9.318;2023-08-30T12:58:48;2.40;;;2.20;;
1336;SDS011;662;48.814;9.318;2023-08-30T13:01:14;2.47;;;2.20;;
1336;SDS011;662;48.814;9.318;2023-08-30T13:03:39;2.80;;;2.43;;
1336;SDS011;662;48.814;9.318;2023-08-30T13:06:05;2.57;;;2.37;;
1336;SDS011;662;48.814;9.318;2023-08-30T13:08:31;1.90;;;1.80;;
1336;SDS011;662;48.814;9.318;2023-08-30T13:10:59;2.03;;;1.93;;
1336;SDS011;662;48.814;9.318;2023-08-30T13:13:25;2.60;;;2.40;;
1336;SDS011;662;48.814;9.318;2023-08-30T13:15:50;2.33;;;2.13;;
1336;SDS011;662;48.814;9.318;2023-08-30T13:18:16;2.00;;;1.90;;
1336;SDS011;662;48.814;9.318;2023-08-30T13:20:42;2.20;;;1.70;;
1336;SDS011;662;48.814;9.318;2023-08-30T13:23:08;2.07;;;1.93;;
1336;SDS011;662;48.814;9.318;2023-08-30T13:25:37;3.00;;;2.20;;
1336;SDS011;662;48.814;9.318;2023-08-30T13:28:03;2.80;;;1.83;;
1336;SDS011;662;48.814;9.318;2023-08-30T13:30:29;1.80;;;1.70;;
1336;SDS011;662;48.814;9.318;2023-08-30T13:32:55;2.17;;;2.00;;
1336;SDS011;662;48.814;9.318;2023-08-30T13:35:21;2.23;;;2.00;;
1336;SDS011;662;48.814;9.318;2023-08-30T13:37:46;1.70;;;1.60;;
1336;SDS011;662;48.814;9.318;2023-08-30T13:40:12;1.67;;;1.50;;
1336;SDS011;662;48.814;9.318;2023-08-30T13:42:37;2.10;;;1.70;;
1336;SDS011;662;48.814;9.318;2023-08-30T13:45:03;3.23;;;2.87;;
1336;SDS011;662;48.814;9.318;2023-08-30T13:47:31;2.10;;;1.90;;
1336;SDS011;662;48.814;9.318;2023-08-30T13:49:56;2.37;;;1.90;;
1336;SDS011;662;48.814;9.318;2023-08-30T13:52:24;1.90;;;1.80;;
1336;SDS011;662;48.814;9.318;2023-08-30T13:54:50;1.70;;;1.60;;
1336;SDS011;662;48.814;9.318;2023-08-30T13:57:16;1.53;;;1.43;;
1336;SDS011;662;48.814;9.318;2023-08-30T13:59:42;2.00;;;1.80;;
1336;SDS011;662;48.814;9.318;2023-08-30T14:02:08;2.20;;;1.63;;
1336;SDS011;662;48.814;9.318;2023-08-30T14:04:33;1.63;;;1.53;;
1336;SDS011;662;48.814;9.318;2023-08-30T14:07:01;1.90;;;1.70;;
1336;SDS011;662;48.814;9.318;2023-08-30T14:09:28;1.70;;;1.60;;
1336;SDS011;662;48.814;9.318;2023-08-30T14:11:54;1.50;;;1.40;;
1336;SDS011;662;48.814;9.318;2023-08-30T14:14:20;1.73;;;1.43;;
1336;SDS011;662;48.814;9.318;2023-08-30T14:16:46;1.47;;;1.33;;
1336;SDS011;662;48.814;9.318;2023-08-30T14:19:12;2.17;;;1.80;;
1336;SDS011;662;48.814;9.318;2023-08-30T14:21:40;1.40;;;1.30;;
1336;SDS011;662;48.814;9.318;2023-08-30T14:24:06;1.47;;;1.37;;
1336;SDS011;662;48.814;9.318;2023-08-30T14:26:32;1.47;;;1.37;;
1336;SDS011;662;48.814;9.318;2023-08-30T14:28:57;1.53;;;1.43;;
1336;SDS011;662;48.814;9.318;2023-08-30T14:31:23;1.60;;;1.50;;
1336;SDS011;662;48.814;9.318;2023-08-30T14:33:53;1.90;;;1.70;;
1336;SDS011;662;48.814;9.318;2023-08-30T14:36:21;2.07;;;1.83;;
1336;SDS011;662;48.814;9.318;2023-08-30T14:38:46;1.50;;;1.40;;
1336;SDS011;662;48.814;9.318;2023-08-30T14:41:12;1.63;;;1.53;;
1336;SDS011;662;48.814;9.318;2023-08-30T14:43:38;1.73;;;1.37;;
1336;SDS011;662;48.814;9.318;2023-08-30T14:46:05;2.80;;;2.60;;
1336;SDS011;662;48.814;9.318;2023-08-30T14:48:33;2.30;;;2.10;;
1336;SDS011;662;48.814;9.318;2023-08-30T14:51:00;2.30;;;2.10;;
1336;SDS011;662;48.814;9.318;2023-08-30T14:53:26;2.23;;;2.03;;
1336;SDS011;662;48.814;9.318;2023-08-30T14:55:52;1.80;;;1.70;;
1336;SDS011;662;48.814;9.318;2023-08-30T14:58:20;2.40;;;2.20;;
1336;SDS011;662;48.814;9.318;2023-08-30T15:00:48;2.77;;;2.57;;
1336;SDS011;662;48.814;9.318;2023-08-30T15:03:14;2.00;;;1.90;;
1336;SDS011;662;48.814;9.318;2023-08-30T15:05:40;1.97;;;1.87;;
1336;SDS011;662;48.814;9.318;2023-08-30T15:08:06;2.27;;;2.10;;
1336;SDS011;662;48.814;9.318;2023-08-30T15:10:32;1.73;;;1.63;;
1336;SDS011;662;48.814;9.318;2023-08-30T15:12:58;1.90;;;1.70;;
1336;SDS011;662;48.814;9.318;2023-08-30T15:15:23;2.07;;;1.97;;
1336;SDS011;662;48.814;9.318;2023-08-30T15:17:49;2.03;;;1.83;;
1336;SDS011;662;48.814;9.318;2023-08-30T15:20:15;2.03;;;1.93;;
1336;SDS011;662;48.814;9.318;2023-08-30T15:22:40;3.90;;;1.93;;
1336;SDS011;662;48.814;9.318;2023-08-30T15:25:06;3.20;;;2.07;;